Time;durP1;ratioP1;P1;durP2;ratioP2;P2;SDS_P1;SDS_P2;PMS_P1;PMS_P2;Temp;Humidity;BMP_temperature;BMP_pressure;BME280_temperature;BME280_humidity;BME280_pressure;Samples;Min_cycle;Max_cycle;Signal;HPM_P1;HPM_P2
2022/07/06 00:00:36;;;;;;;;;;;18.40;99.70;;;;;;4973678;28;20200;-75
2022/07/06 00:03:04;;;;;;;;;;;18.40;99.80;;;;;;4968446;28;20247;-70
2022/07/06 00:05:32;;;;;;;;;;;18.30;99.90;;;;;;4972000;28;20196;-75
2022/07/06 00:08:00;;;;;;;;;;;18.30;99.90;;;;;;4966540;28;20196;-73
2022/07/06 00:10:29;;;;;;;;;;;18.30;99.90;;;;;;4970117;28;20204;-74
2022/07/06 00:12:56;;;;;;;;;;;18.20;99.90;;;;;;4968769;28;20575;-74
2022/07/06 00:15:24;;;;;;;;;;;18.20;99.90;;;;;;4949037;28;20295;-74
2022/07/06 00:17:52;;;;;;;;;;;18.00;99.90;;;;;;4955123;28;20215;-74
2022/07/06 00:20:20;;;;;;;;;;;18.00;99.90;;;;;;4945237;28;20283;-73
2022/07/06 00:22:48;;;;;;;;;;;17.90;99.90;;;;;;4952967;28;20193;-73
2022/07/06 00:25:16;;;;;;;;;;;17.80;99.90;;;;;;4965490;28;20208;-72
2022/07/06 00:27:45;;;;;;;;;;;17.80;99.90;;;;;;4969230;28;20581;-73
2022/07/06 00:30:13;;;;;;;;;;;17.80;99.90;;;;;;4954931;28;20253;-73
2022/07/06 00:32:40;;;;;;;;;;;18.10;99.90;;;;;;4937408;29;20255;-72
2022/07/06 00:35:08;;;;;;;;;;;17.90;99.90;;;;;;4955271;28;20613;-74
2022/07/06 00:37:36;;;;;;;;;;;17.80;99.90;;;;;;4955329;28;20205;-73
2022/07/06 00:40:04;;;;;;;;;;;17.80;99.90;;;;;;4959835;28;20204;-73
2022/07/06 00:42:39;;;;;;;;;;;17.70;99.90;;;;;;4972975;28;20196;-73
2022/07/06 00:45:09;;;;;;;;;;;17.90;99.90;;;;;;4959944;28;20197;-73
2022/07/06 00:47:36;;;;;;;;;;;17.90;99.90;;;;;;4958299;28;20205;-73
2022/07/06 00:50:20;;;;;;;;;;;17.90;99.90;;;;;;4973389;28;20212;-73
2022/07/06 00:52:49;;;;;;;;;;;17.70;99.90;;;;;;4957955;28;20654;-73
2022/07/06 00:55:18;;;;;;;;;;;17.60;99.90;;;;;;4973269;28;20208;-72
2022/07/06 00:57:46;;;;;;;;;;;17.60;99.90;;;;;;4973363;28;20252;-72
2022/07/06 01:00:17;;;;;;;;;;;17.40;99.90;;;;;;4973188;28;20681;-73
2022/07/06 01:02:44;;;;;;;;;;;17.60;99.90;;;;;;4972670;28;20259;-72
2022/07/06 01:05:13;;;;;;;;;;;17.90;99.90;;;;;;4973376;28;20207;-73
2022/07/06 01:07:42;;;;;;;;;;;17.80;99.90;;;;;;4973058;28;20208;-73
2022/07/06 01:10:10;;;;;;;;;;;18.00;99.90;;;;;;4969936;28;20208;-73
2022/07/06 01:12:39;;;;;;;;;;;18.20;99.90;;;;;;4972453;28;20620;-72
2022/07/06 01:15:08;;;;;;;;;;;18.30;99.90;;;;;;4976457;28;20204;-73
2022/07/06 01:17:38;;;;;;;;;;;18.30;99.90;;;;;;4982396;28;20258;-73
2022/07/06 01:20:10;;;;;;;;;;;18.10;99.90;;;;;;4992072;28;20266;-73
2022/07/06 01:22:38;;;;;;;;;;;18.20;99.90;;;;;;4991886;28;20192;-72
2022/07/06 01:25:06;;;;;;;;;;;18.20;99.90;;;;;;4985193;28;20254;-73
2022/07/06 01:27:37;;;;;;;;;;;18.20;99.90;;;;;;4970601;28;20204;-73
2022/07/06 01:30:06;;;;;;;;;;;18.30;99.90;;;;;;4974845;28;20204;-73
2022/07/06 01:32:33;;;;;;;;;;;18.10;99.90;;;;;;4970406;28;20242;-73
2022/07/06 01:35:01;;;;;;;;;;;18.20;99.90;;;;;;4974550;28;20200;-72
2022/07/06 01:37:30;;;;;;;;;;;18.10;99.90;;;;;;4969588;28;20218;-73
2022/07/06 01:39:58;;;;;;;;;;;17.90;99.90;;;;;;4965509;28;20208;-74
2022/07/06 01:42:27;;;;;;;;;;;17.80;99.90;;;;;;4969579;28;20700;-74
2022/07/06 01:44:54;;;;;;;;;;;17.60;99.90;;;;;;4967491;28;20744;-73
2022/07/06 01:47:25;;;;;;;;;;;17.50;99.90;;;;;;4971537;28;20192;-74
2022/07/06 01:49:53;;;;;;;;;;;17.30;99.90;;;;;;4970671;28;20195;-74
2022/07/06 01:52:20;;;;;;;;;;;17.10;99.90;;;;;;4966555;28;20196;-74
2022/07/06 01:54:50;;;;;;;;;;;17.00;99.90;;;;;;4969902;28;20208;-74
2022/07/06 01:57:17;;;;;;;;;;;17.00;99.90;;;;;;4969019;28;20200;-72
2022/07/06 01:59:45;;;;;;;;;;;17.20;99.90;;;;;;4972164;28;20196;-73
2022/07/06 02:02:13;;;;;;;;;;;17.00;99.90;;;;;;4966752;28;20200;-73
2022/07/06 02:04:41;;;;;;;;;;;17.00;99.90;;;;;;4964883;28;20209;-74
2022/07/06 02:07:08;;;;;;;;;;;16.90;99.90;;;;;;4971121;28;20208;-73
2022/07/06 02:09:36;;;;;;;;;;;16.80;99.90;;;;;;4971457;28;20200;-73
2022/07/06 02:12:06;;;;;;;;;;;16.70;99.90;;;;;;4972055;28;20192;-73
2022/07/06 02:14:34;;;;;;;;;;;16.70;99.90;;;;;;4972216;28;20212;-74
2022/07/06 02:17:01;;;;;;;;;;;16.70;99.90;;;;;;4958798;28;20204;-73
2022/07/06 02:19:29;;;;;;;;;;;16.70;99.90;;;;;;4970391;28;20203;-74
2022/07/06 02:21:57;;;;;;;;;;;16.60;99.90;;;;;;4965020;28;20727;-73
2022/07/06 02:24:25;;;;;;;;;;;16.60;99.90;;;;;;4970772;28;20298;-73
2022/07/06 02:26:52;;;;;;;;;;;16.50;99.90;;;;;;4964345;28;20208;-71
2022/07/06 02:29:21;;;;;;;;;;;16.60;99.90;;;;;;4972621;28;20210;-73
2022/07/06 02:31:49;;;;;;;;;;;16.50;99.90;;;;;;4974621;28;20204;-73
2022/07/06 02:34:17;;;;;;;;;;;16.50;99.90;;;;;;4971182;28;20211;-74
2022/07/06 02:36:45;;;;;;;;;;;16.40;99.90;;;;;;4965508;28;20262;-74
2022/07/06 02:39:12;;;;;;;;;;;16.50;99.90;;;;;;4963019;28;20208;-74
2022/07/06 02:41:40;;;;;;;;;;;16.40;99.90;;;;;;4964811;28;21461;-73
2022/07/06 02:44:08;;;;;;;;;;;16.30;99.90;;;;;;4969546;28;20700;-74
2022/07/06 02:46:37;;;;;;;;;;;16.20;99.90;;;;;;4969145;28;20196;-74
2022/07/06 02:49:05;;;;;;;;;;;16.20;99.90;;;;;;4968635;28;20196;-74
2022/07/06 02:51:33;;;;;;;;;;;16.20;99.90;;;;;;4965090;28;20681;-69
2022/07/06 02:54:00;;;;;;;;;;;16.10;99.90;;;;;;4964810;28;20200;-73
2022/07/06 02:56:28;;;;;;;;;;;16.10;99.90;;;;;;4970804;28;20196;-74
2022/07/06 02:58:56;;;;;;;;;;;15.90;99.90;;;;;;4978831;28;20239;-74
2022/07/06 03:01:24;;;;;;;;;;;15.90;99.90;;;;;;4981821;28;20204;-74
2022/07/06 03:03:53;;;;;;;;;;;16.00;99.90;;;;;;4969914;28;20192;-73
2022/07/06 03:06:21;;;;;;;;;;;15.90;99.90;;;;;;4972595;28;20231;-72
2022/07/06 03:08:49;;;;;;;;;;;15.90;99.90;;;;;;4966353;28;20204;-73
2022/07/06 03:11:16;;;;;;;;;;;15.80;99.90;;;;;;4963800;28;20200;-73
2022/07/06 03:13:44;;;;;;;;;;;15.90;99.90;;;;;;4967685;28;20240;-72
2022/07/06 03:16:12;;;;;;;;;;;15.80;99.90;;;;;;4970294;28;20622;-73
2022/07/06 03:18:39;;;;;;;;;;;15.70;99.90;;;;;;4967728;28;20259;-73
2022/07/06 03:21:09;;;;;;;;;;;15.70;99.90;;;;;;4971658;28;20211;-73
2022/07/06 03:23:37;;;;;;;;;;;15.60;99.90;;;;;;4966634;28;20685;-74
2022/07/06 03:26:04;;;;;;;;;;;15.80;99.90;;;;;;4967113;28;20220;-73
2022/07/06 03:28:32;;;;;;;;;;;15.70;99.90;;;;;;4970033;28;20196;-73
2022/07/06 03:31:00;;;;;;;;;;;15.60;99.90;;;;;;4964879;28;20204;-73
2022/07/06 03:33:28;;;;;;;;;;;15.60;99.90;;;;;;4971005;28;20200;-73
2022/07/06 03:35:55;;;;;;;;;;;15.60;99.90;;;;;;4968439;28;20204;-73
2022/07/06 03:38:24;;;;;;;;;;;15.60;99.90;;;;;;4972807;28;20266;-74
2022/07/06 03:40:53;;;;;;;;;;;15.50;99.90;;;;;;4970671;28;20200;-73
2022/07/06 03:43:21;;;;;;;;;;;15.50;99.90;;;;;;4971222;28;20200;-73
2022/07/06 03:45:49;;;;;;;;;;;15.40;99.90;;;;;;4966940;28;20204;-73
2022/07/06 03:48:16;;;;;;;;;;;15.40;99.90;;;;;;4970821;28;20289;-73
2022/07/06 03:50:44;;;;;;;;;;;15.40;99.90;;;;;;4968479;28;20733;-73
2022/07/06 03:53:12;;;;;;;;;;;15.40;99.90;;;;;;4966983;28;20254;-73
2022/07/06 03:55:41;;;;;;;;;;;15.40;99.90;;;;;;4967753;28;20197;-74
2022/07/06 03:58:09;;;;;;;;;;;15.60;99.90;;;;;;4965546;28;20619;-71
2022/07/06 04:00:36;;;;;;;;;;;15.60;99.90;;;;;;4970183;28;20259;-73
2022/07/06 04:03:04;;;;;;;;;;;15.60;99.90;;;;;;4968299;28;20191;-73
2022/07/06 04:05:32;;;;;;;;;;;15.50;99.90;;;;;;4966141;28;20271;-74
2022/07/06 04:08:00;;;;;;;;;;;15.50;99.90;;;;;;4968532;28;20262;-72
2022/07/06 04:10:28;;;;;;;;;;;15.50;99.90;;;;;;4967061;28;20196;-73
2022/07/06 04:12:57;;;;;;;;;;;15.40;99.90;;;;;;4970782;28;20192;-73
2022/07/06 04:15:24;;;;;;;;;;;15.30;99.90;;;;;;4971248;28;20753;-73
2022/07/06 04:17:52;;;;;;;;;;;15.30;99.90;;;;;;4970524;28;20232;-70
2022/07/06 04:20:20;;;;;;;;;;;15.20;99.90;;;;;;4975138;28;20200;-74
2022/07/06 04:22:48;;;;;;;;;;;15.20;99.90;;;;;;4967872;28;20197;-74
2022/07/06 04:25:16;;;;;;;;;;;15.20;99.90;;;;;;4969406;28;20204;-74
2022/07/06 04:27:44;;;;;;;;;;;15.20;99.90;;;;;;4977459;28;20204;-75
2022/07/06 04:30:13;;;;;;;;;;;15.10;99.90;;;;;;4967555;28;20208;-70
2022/07/06 04:32:41;;;;;;;;;;;15.10;99.90;;;;;;4956099;28;20306;-70
2022/07/06 04:35:09;;;;;;;;;;;15.20;99.90;;;;;;4958618;28;20204;-70
2022/07/06 04:37:37;;;;;;;;;;;15.30;99.90;;;;;;4956400;28;20212;-68
2022/07/06 04:40:06;;;;;;;;;;;15.30;99.90;;;;;;4958653;28;20200;-70
2022/07/06 04:42:33;;;;;;;;;;;15.50;99.90;;;;;;4949831;28;21031;-72
2022/07/06 04:45:01;;;;;;;;;;;15.50;99.90;;;;;;4949238;28;20237;-71
2022/07/06 04:47:30;;;;;;;;;;;15.50;99.90;;;;;;4957715;28;20215;-70
2022/07/06 04:49:58;;;;;;;;;;;15.60;99.90;;;;;;4958892;28;20212;-70
2022/07/06 04:52:26;;;;;;;;;;;15.60;99.90;;;;;;4955533;28;20208;-70
2022/07/06 04:54:55;;;;;;;;;;;15.50;99.90;;;;;;4958129;28;20555;-70
2022/07/06 04:57:25;;;;;;;;;;;15.50;99.90;;;;;;4956751;28;20916;-72
2022/07/06 04:59:53;;;;;;;;;;;15.40;99.90;;;;;;4941823;28;20284;-67
2022/07/06 05:02:21;;;;;;;;;;;15.50;99.90;;;;;;4956667;28;20228;-70
2022/07/06 05:04:50;;;;;;;;;;;15.50;99.90;;;;;;4955319;28;20204;-72
2022/07/06 05:07:18;;;;;;;;;;;15.50;99.90;;;;;;4954594;28;20215;-73
2022/07/06 05:09:45;;;;;;;;;;;15.40;99.90;;;;;;4955768;28;20230;-70
2022/07/06 05:12:18;;;;;;;;;;;15.50;99.90;;;;;;4954602;28;20222;-72
2022/07/06 05:14:46;;;;;;;;;;;15.60;99.90;;;;;;4953294;28;20307;-72
2022/07/06 05:17:14;;;;;;;;;;;15.60;99.90;;;;;;4956575;28;20208;-71
2022/07/06 05:19:42;;;;;;;;;;;15.60;99.90;;;;;;4956479;28;20208;-70
2022/07/06 05:22:11;;;;;;;;;;;15.60;99.90;;;;;;4953043;28;20256;-68
2022/07/06 05:24:39;;;;;;;;;;;15.60;99.90;;;;;;4954055;28;20236;-69
2022/07/06 05:27:06;;;;;;;;;;;15.70;99.90;;;;;;4956479;28;20207;-69
2022/07/06 05:29:34;;;;;;;;;;;15.80;99.90;;;;;;4957355;28;20192;-73
2022/07/06 05:32:02;;;;;;;;;;;15.80;99.90;;;;;;4954856;28;20275;-68
2022/07/06 05:34:30;;;;;;;;;;;15.90;99.90;;;;;;4953561;28;20201;-71
2022/07/06 05:36:58;;;;;;;;;;;16.10;99.90;;;;;;4954757;28;20252;-68
2022/07/06 05:39:27;;;;;;;;;;;16.00;99.90;;;;;;4955276;28;20200;-71
2022/07/06 05:41:55;;;;;;;;;;;16.00;99.90;;;;;;4954465;28;20212;-71
2022/07/06 05:44:23;;;;;;;;;;;16.00;99.90;;;;;;4953207;28;20685;-69
2022/07/06 05:46:50;;;;;;;;;;;16.00;99.90;;;;;;4956849;28;20287;-71
2022/07/06 05:52:04;;;;;;;;;;;16.20;99.90;;;;;;4953964;28;20204;-68
2022/07/06 05:54:33;;;;;;;;;;;16.30;99.90;;;;;;4937517;28;20204;-69
2022/07/06 05:57:01;;;;;;;;;;;16.30;99.90;;;;;;4954441;28;21027;-66
2022/07/06 05:59:28;;;;;;;;;;;16.40;99.90;;;;;;4955453;28;20211;-68
2022/07/06 06:01:56;;;;;;;;;;;16.50;99.90;;;;;;4953788;28;20843;-68
2022/07/06 06:04:24;;;;;;;;;;;16.60;99.90;;;;;;4952452;28;20206;-69
2022/07/06 06:06:51;;;;;;;;;;;16.70;99.90;;;;;;4955957;28;20209;-70
2022/07/06 06:09:19;;;;;;;;;;;16.70;99.90;;;;;;4957938;28;20270;-71
2022/07/06 06:11:48;;;;;;;;;;;16.90;99.90;;;;;;4957033;28;20254;-69
2022/07/06 06:14:16;;;;;;;;;;;17.00;99.90;;;;;;4953768;28;20225;-68
2022/07/06 06:16:44;;;;;;;;;;;17.10;99.90;;;;;;4952786;28;20250;-68
2022/07/06 06:19:12;;;;;;;;;;;17.10;99.90;;;;;;4953233;28;20211;-66
2022/07/06 06:21:39;;;;;;;;;;;17.00;99.90;;;;;;4957199;28;20790;-70
2022/07/06 06:24:08;;;;;;;;;;;17.00;99.90;;;;;;4965292;28;20196;-70
2022/07/06 06:26:35;;;;;;;;;;;17.00;99.90;;;;;;4970164;28;20625;-71
2022/07/06 06:29:04;;;;;;;;;;;17.20;99.90;;;;;;4975281;28;20309;-70
2022/07/06 06:31:32;;;;;;;;;;;17.50;99.90;;;;;;4972546;28;20214;-70
2022/07/06 06:34:07;;;;;;;;;;;17.70;99.90;;;;;;4972104;28;20279;-70
2022/07/06 06:36:35;;;;;;;;;;;17.60;99.90;;;;;;4972772;28;20584;-71
2022/07/06 06:39:03;;;;;;;;;;;17.60;99.90;;;;;;4972772;28;20204;-71
2022/07/06 06:41:31;;;;;;;;;;;17.60;99.90;;;;;;4972554;28;20204;-70
2022/07/06 06:43:59;;;;;;;;;;;17.70;99.90;;;;;;4954575;28;20203;-71
2022/07/06 06:46:28;;;;;;;;;;;17.90;99.90;;;;;;4972270;28;20203;-70
2022/07/06 06:48:56;;;;;;;;;;;18.10;99.90;;;;;;4981998;28;20231;-71
2022/07/06 06:51:23;;;;;;;;;;;18.30;99.90;;;;;;4991295;28;20661;-69
2022/07/06 06:53:51;;;;;;;;;;;18.50;99.90;;;;;;4990784;28;20665;-70
2022/07/06 06:56:19;;;;;;;;;;;18.50;99.90;;;;;;4990754;28;20212;-70
2022/07/06 06:58:47;;;;;;;;;;;18.70;99.90;;;;;;4991287;28;20242;-70
2022/07/06 07:01:36;;;;;;;;;;;18.70;99.90;;;;;;4993701;28;20290;-70
2022/07/06 07:04:05;;;;;;;;;;;18.70;99.90;;;;;;4994098;28;20222;-69
2022/07/06 07:06:33;;;;;;;;;;;18.60;99.90;;;;;;4994748;28;20226;-70
2022/07/06 07:09:01;;;;;;;;;;;18.80;99.90;;;;;;4995116;28;20279;-71
2022/07/06 07:11:29;;;;;;;;;;;19.00;99.90;;;;;;4995048;28;20239;-70
2022/07/06 07:13:57;;;;;;;;;;;19.20;99.90;;;;;;4993856;28;20254;-71
2022/07/06 07:16:25;;;;;;;;;;;19.20;99.90;;;;;;4978791;28;20224;-70
2022/07/06 07:18:54;;;;;;;;;;;19.40;99.90;;;;;;4981588;28;20235;-71
2022/07/06 07:21:22;;;;;;;;;;;19.40;99.90;;;;;;4994566;28;20250;-69
2022/07/06 07:23:50;;;;;;;;;;;19.30;99.90;;;;;;4993531;28;20200;-71
2022/07/06 07:26:18;;;;;;;;;;;19.30;99.90;;;;;;4994197;28;20200;-70
2022/07/06 07:28:46;;;;;;;;;;;19.40;99.90;;;;;;4994674;28;20204;-70
2022/07/06 07:31:14;;;;;;;;;;;19.60;99.90;;;;;;4994470;28;20254;-71
2022/07/06 07:33:42;;;;;;;;;;;19.60;99.90;;;;;;4993736;28;20315;-70
2022/07/06 07:36:11;;;;;;;;;;;19.70;99.90;;;;;;4994282;28;20708;-70
2022/07/06 07:38:39;;;;;;;;;;;19.60;99.90;;;;;;4994316;28;20204;-71
2022/07/06 07:41:06;;;;;;;;;;;19.80;99.90;;;;;;4994447;28;20210;-70
2022/07/06 07:43:34;;;;;;;;;;;19.80;99.90;;;;;;4993278;28;20203;-70
2022/07/06 07:46:02;;;;;;;;;;;20.00;99.90;;;;;;4963739;28;20196;-71
2022/07/06 07:48:30;;;;;;;;;;;20.20;99.90;;;;;;4975278;28;20294;-69
2022/07/06 07:50:57;;;;;;;;;;;20.00;99.90;;;;;;4975480;28;20199;-71
2022/07/06 07:53:26;;;;;;;;;;;19.90;99.90;;;;;;4974389;28;20204;-70
2022/07/06 07:55:54;;;;;;;;;;;19.80;99.90;;;;;;4975616;28;20247;-70
2022/07/06 07:58:22;;;;;;;;;;;19.80;99.90;;;;;;4975292;28;20253;-71
2022/07/06 08:00:50;;;;;;;;;;;19.70;99.90;;;;;;4974873;28;20208;-70
2022/07/06 08:03:18;;;;;;;;;;;19.80;99.90;;;;;;4974313;28;20261;-70
2022/07/06 08:05:47;;;;;;;;;;;20.00;99.90;;;;;;4975521;28;20609;-70
2022/07/06 08:08:14;;;;;;;;;;;20.10;99.50;;;;;;4975418;28;20677;-70
2022/07/06 08:10:44;;;;;;;;;;;20.20;99.20;;;;;;4975023;28;20204;-71
2022/07/06 08:13:32;;;;;;;;;;;20.30;98.10;;;;;;4956040;28;20293;-70
2022/07/06 08:16:00;;;;;;;;;;;20.40;98.20;;;;;;4974551;28;20593;-70
2022/07/06 08:18:27;;;;;;;;;;;20.40;97.80;;;;;;4976262;28;20211;-70
2022/07/06 08:20:56;;;;;;;;;;;20.40;97.40;;;;;;4993645;28;20200;-71
2022/07/06 08:23:44;;;;;;;;;;;20.50;97.00;;;;;;4992481;28;20302;-70
2022/07/06 08:26:13;;;;;;;;;;;20.40;97.20;;;;;;4993622;28;20203;-71
2022/07/06 08:28:44;;;;;;;;;;;20.50;97.60;;;;;;4993431;28;20261;-71
2022/07/06 08:31:12;;;;;;;;;;;20.60;98.50;;;;;;4993306;28;20218;-71
2022/07/06 08:34:00;;;;;;;;;;;20.70;97.70;;;;;;4992310;28;20203;-70
2022/07/06 08:36:28;;;;;;;;;;;20.70;97.00;;;;;;4993077;28;20673;-70
2022/07/06 08:38:55;;;;;;;;;;;20.70;97.20;;;;;;4993357;28;20262;-71
2022/07/06 08:41:26;;;;;;;;;;;20.70;96.30;;;;;;4993343;28;20242;-70
2022/07/06 08:43:54;;;;;;;;;;;20.90;97.30;;;;;;4992435;28;20205;-70
2022/07/06 08:46:22;;;;;;;;;;;21.10;96.20;;;;;;4978408;28;20208;-71
2022/07/06 08:48:50;;;;;;;;;;;21.30;97.10;;;;;;4974076;28;20271;-71
2022/07/06 08:51:18;;;;;;;;;;;21.50;94.30;;;;;;4974152;28;20200;-71
2022/07/06 08:53:48;;;;;;;;;;;21.70;94.70;;;;;;4973291;28;20644;-71
2022/07/06 08:56:16;;;;;;;;;;;22.00;93.60;;;;;;4974538;28;20200;-69
2022/07/06 08:58:46;;;;;;;;;;;22.00;93.00;;;;;;4974049;28;20196;-70
2022/07/06 09:01:13;;;;;;;;;;;22.20;92.90;;;;;;4974147;28;20204;-70
2022/07/06 09:03:41;;;;;;;;;;;22.40;92.20;;;;;;4974044;28;20263;-71
2022/07/06 09:06:09;;;;;;;;;;;22.40;92.50;;;;;;4974394;28;20208;-70
2022/07/06 09:08:37;;;;;;;;;;;22.60;93.40;;;;;;4974467;28;20258;-71
2022/07/06 09:11:05;;;;;;;;;;;22.90;92.30;;;;;;4974327;28;20201;-71
2022/07/06 09:13:33;;;;;;;;;;;22.80;91.20;;;;;;4973439;28;20208;-72
2022/07/06 09:16:11;;;;;;;;;;;23.00;91.50;;;;;;4973661;28;20587;-72
2022/07/06 09:18:59;;;;;;;;;;;23.10;91.00;;;;;;4961935;28;20227;-69
2022/07/06 09:21:27;;;;;;;;;;;23.00;90.20;;;;;;4992719;28;20580;-71
2022/07/06 09:23:56;;;;;;;;;;;23.10;89.00;;;;;;4973850;28;20259;-72
2022/07/06 09:26:24;;;;;;;;;;;23.10;88.90;;;;;;4992473;28;20688;-69
2022/07/06 09:28:52;;;;;;;;;;;23.30;88.30;;;;;;4992494;28;20215;-69
2022/07/06 09:31:21;;;;;;;;;;;23.40;87.10;;;;;;4992552;28;20203;-67
2022/07/06 09:33:56;;;;;;;;;;;23.40;87.10;;;;;;4992197;28;20227;-69
2022/07/06 09:36:40;;;;;;;;;;;23.10;88.20;;;;;;4992415;28;20219;-68
2022/07/06 09:39:17;;;;;;;;;;;23.30;88.80;;;;;;4992454;28;20214;-71
2022/07/06 09:41:45;;;;;;;;;;;23.40;89.30;;;;;;4993264;28;20258;-69
2022/07/06 09:44:13;;;;;;;;;;;23.60;86.30;;;;;;4991826;28;20700;-69
2022/07/06 09:46:43;;;;;;;;;;;23.60;86.70;;;;;;4973597;28;20627;-70
2022/07/06 09:49:10;;;;;;;;;;;23.70;87.20;;;;;;4969206;28;20872;-67
2022/07/06 09:51:39;;;;;;;;;;;23.70;86.90;;;;;;4973481;28;20200;-69
2022/07/06 09:54:07;;;;;;;;;;;23.90;86.10;;;;;;4973085;28;20336;-69
2022/07/06 09:56:39;;;;;;;;;;;24.10;84.10;;;;;;4973438;28;20200;-69
2022/07/06 09:59:09;;;;;;;;;;;24.00;84.00;;;;;;4973284;28;20227;-69
2022/07/06 10:01:38;;;;;;;;;;;24.10;83.40;;;;;;4973627;28;20218;-68
2022/07/06 10:04:08;;;;;;;;;;;24.40;86.00;;;;;;4973114;28;20231;-69
2022/07/06 10:06:36;;;;;;;;;;;24.40;82.70;;;;;;4973347;28;20207;-69
2022/07/06 10:09:06;;;;;;;;;;;24.90;82.40;;;;;;4973084;28;20204;-70
2022/07/06 10:11:40;;;;;;;;;;;25.00;80.30;;;;;;4956207;28;20208;-69
2022/07/06 10:14:08;;;;;;;;;;;25.10;80.40;;;;;;4972660;28;20208;-69
2022/07/06 10:16:37;;;;;;;;;;;24.90;81.30;;;;;;4972957;28;20196;-69
2022/07/06 10:19:06;;;;;;;;;;;24.70;84.50;;;;;;4971001;28;20204;-69
2022/07/06 10:21:37;;;;;;;;;;;24.50;82.90;;;;;;4973284;28;20287;-67
2022/07/06 10:24:06;;;;;;;;;;;24.20;84.10;;;;;;4972856;28;20258;-69
2022/07/06 10:26:34;;;;;;;;;;;24.30;80.60;;;;;;4973190;28;20650;-70
2022/07/06 10:29:03;;;;;;;;;;;24.40;80.50;;;;;;4973192;28;20212;-69
2022/07/06 10:31:31;;;;;;;;;;;24.20;81.50;;;;;;4973170;28;20267;-69
2022/07/06 10:34:00;;;;;;;;;;;24.70;81.50;;;;;;4972602;28;20740;-69
2022/07/06 10:36:28;;;;;;;;;;;25.00;81.40;;;;;;4975764;28;20208;-67
2022/07/06 10:38:58;;;;;;;;;;;25.10;82.00;;;;;;4977182;28;20580;-68
2022/07/06 10:41:31;;;;;;;;;;;25.30;81.60;;;;;;4976999;28;20624;-68
2022/07/06 10:44:15;;;;;;;;;;;25.40;80.40;;;;;;4976562;28;20208;-69
2022/07/06 10:46:50;;;;;;;;;;;25.40;82.70;;;;;;4959317;28;20207;-68
2022/07/06 10:49:18;;;;;;;;;;;25.10;81.90;;;;;;4985207;28;20219;-69
2022/07/06 10:52:06;;;;;;;;;;;24.60;80.10;;;;;;4995765;28;20223;-69
2022/07/06 10:54:40;;;;;;;;;;;25.10;79.90;;;;;;4995109;28;20203;-69
2022/07/06 10:57:09;;;;;;;;;;;25.60;79.60;;;;;;4995360;28;20688;-69
2022/07/06 10:59:37;;;;;;;;;;;26.20;77.00;;;;;;4995314;28;20559;-70
2022/07/06 11:02:12;;;;;;;;;;;26.50;74.60;;;;;;4995333;28;20204;-69
2022/07/06 11:04:41;;;;;;;;;;;26.70;75.90;;;;;;4969794;28;20216;-69
2022/07/06 11:07:10;;;;;;;;;;;26.50;74.20;;;;;;4970112;28;20200;-69
2022/07/06 11:09:42;;;;;;;;;;;26.20;75.00;;;;;;4970350;28;20660;-69
2022/07/06 11:12:13;;;;;;;;;;;26.60;75.10;;;;;;4970761;28;20200;-69
2022/07/06 11:14:41;;;;;;;;;;;26.60;73.60;;;;;;4975996;28;20216;-68
2022/07/06 11:17:10;;;;;;;;;;;27.00;74.30;;;;;;4976184;28;20286;-70
2022/07/06 11:19:38;;;;;;;;;;;27.00;73.70;;;;;;4976052;28;20200;-69
2022/07/06 11:22:07;;;;;;;;;;;26.60;73.00;;;;;;4976039;28;20211;-68
2022/07/06 11:24:35;;;;;;;;;;;26.30;73.90;;;;;;4976181;28;20207;-69
2022/07/06 11:27:06;;;;;;;;;;;26.40;73.50;;;;;;4976218;28;20677;-69
2022/07/06 11:29:36;;;;;;;;;;;26.30;75.60;;;;;;4976022;28;20211;-70
2022/07/06 11:32:04;;;;;;;;;;;26.60;76.30;;;;;;4958390;28;20204;-71
2022/07/06 11:34:33;;;;;;;;;;;26.60;76.00;;;;;;4975984;28;20204;-71
2022/07/06 11:37:02;;;;;;;;;;;26.10;75.90;;;;;;4975835;28;20626;-71
2022/07/06 11:39:31;;;;;;;;;;;26.00;74.20;;;;;;4975781;28;20215;-70
2022/07/06 11:42:00;;;;;;;;;;;25.70;75.90;;;;;;4975714;28;20204;-69
2022/07/06 11:44:29;;;;;;;;;;;25.70;75.00;;;;;;4975735;28;20685;-71
2022/07/06 11:47:00;;;;;;;;;;;26.10;73.90;;;;;;4974559;28;20266;-71
2022/07/06 11:49:27;;;;;;;;;;;26.60;73.70;;;;;;4984473;28;20204;-71
2022/07/06 11:51:55;;;;;;;;;;;26.90;74.60;;;;;;4994290;28;20203;-70
2022/07/06 11:54:24;;;;;;;;;;;26.90;74.20;;;;;;4994171;28;20207;-69
2022/07/06 11:56:52;;;;;;;;;;;26.70;73.30;;;;;;4994291;28;20641;-69
2022/07/06 11:59:23;;;;;;;;;;;27.10;74.40;;;;;;4994146;28;20204;-69
2022/07/06 12:01:59;;;;;;;;;;;27.10;74.20;;;;;;4994337;28;20613;-71
2022/07/06 12:04:27;;;;;;;;;;;27.00;73.00;;;;;;4994384;28;20583;-72
2022/07/06 12:06:56;;;;;;;;;;;27.50;73.00;;;;;;4994090;28;20223;-72
2022/07/06 12:09:23;;;;;;;;;;;27.70;73.10;;;;;;4993787;28;20191;-71
2022/07/06 12:11:51;;;;;;;;;;;27.80;70.20;;;;;;4993960;28;20673;-69
2022/07/06 12:14:19;;;;;;;;;;;28.30;70.80;;;;;;4993766;28;20262;-70
2022/07/06 12:16:49;;;;;;;;;;;28.50;70.50;;;;;;4975434;28;20208;-70
2022/07/06 12:19:18;;;;;;;;;;;28.60;69.40;;;;;;4957537;28;20192;-70
2022/07/06 12:21:47;;;;;;;;;;;28.00;69.20;;;;;;4975063;28;20204;-69
2022/07/06 12:24:19;;;;;;;;;;;28.10;69.20;;;;;;4974956;28;20573;-69
2022/07/06 12:26:47;;;;;;;;;;;28.60;69.70;;;;;;4975074;28;20700;-69
2022/07/06 12:29:15;;;;;;;;;;;28.60;68.70;;;;;;4974868;28;20658;-69
2022/07/06 12:31:44;;;;;;;;;;;28.00;70.20;;;;;;4975101;28;20200;-69
2022/07/06 12:34:16;;;;;;;;;;;27.80;70.40;;;;;;4974729;28;20212;-69
2022/07/06 12:36:45;;;;;;;;;;;27.90;72.00;;;;;;4974662;28;20209;-70
2022/07/06 12:39:14;;;;;;;;;;;27.80;68.60;;;;;;4974866;28;20196;-70
2022/07/06 12:41:45;;;;;;;;;;;27.70;69.90;;;;;;4957354;28;20212;-69
2022/07/06 12:44:13;;;;;;;;;;;27.60;68.20;;;;;;4974626;28;20200;-69
2022/07/06 12:46:41;;;;;;;;;;;27.10;69.00;;;;;;4974695;28;20212;-69
2022/07/06 12:49:14;;;;;;;;;;;26.30;70.10;;;;;;4962899;28;20196;-69
2022/07/06 12:51:56;;;;;;;;;;;26.30;71.00;;;;;;4968532;28;20200;-69
2022/07/06 12:54:25;;;;;;;;;;;26.60;71.30;;;;;;4973791;28;20715;-70
2022/07/06 12:56:56;;;;;;;;;;;26.70;73.40;;;;;;4974139;28;20685;-69
2022/07/06 12:59:24;;;;;;;;;;;26.80;71.60;;;;;;4974308;28;20200;-69
2022/07/06 13:01:55;;;;;;;;;;;26.50;70.80;;;;;;4974453;28;20200;-69
2022/07/06 13:04:23;;;;;;;;;;;26.40;71.60;;;;;;4973951;28;20201;-69
2022/07/06 13:06:51;;;;;;;;;;;26.10;71.80;;;;;;4974558;28;20212;-68
2022/07/06 13:09:22;;;;;;;;;;;26.40;72.10;;;;;;4973721;28;20413;-69
2022/07/06 13:11:50;;;;;;;;;;;26.10;72.00;;;;;;4974219;28;20285;-69
2022/07/06 13:14:19;;;;;;;;;;;25.60;74.60;;;;;;4973499;28;20744;-70
2022/07/06 13:16:47;;;;;;;;;;;25.90;74.00;;;;;;4973766;28;20208;-69
2022/07/06 13:19:15;;;;;;;;;;;26.40;73.60;;;;;;4983539;28;20243;-69
2022/07/06 13:21:44;;;;;;;;;;;27.00;71.50;;;;;;4992920;28;20597;-69
2022/07/06 13:24:12;;;;;;;;;;;27.40;71.60;;;;;;4991960;28;20211;-69
2022/07/06 13:26:41;;;;;;;;;;;27.80;70.60;;;;;;4992716;28;20662;-70
2022/07/06 13:29:10;;;;;;;;;;;27.90;70.50;;;;;;4992476;28;20196;-71
2022/07/06 13:31:39;;;;;;;;;;;28.20;70.80;;;;;;4992555;28;20231;-71
2022/07/06 13:34:07;;;;;;;;;;;28.80;68.50;;;;;;4991916;28;20200;-67
2022/07/06 13:36:35;;;;;;;;;;;28.60;68.10;;;;;;4993776;28;20204;-72
2022/07/06 13:39:03;;;;;;;;;;;28.10;68.30;;;;;;4992064;28;20546;-71
2022/07/06 13:41:31;;;;;;;;;;;28.20;71.00;;;;;;4975112;28;20199;-71
2022/07/06 13:44:01;;;;;;;;;;;28.00;69.50;;;;;;4992008;28;20211;-69
2022/07/06 13:46:29;;;;;;;;;;;28.10;69.00;;;;;;4966042;28;20610;-71
2022/07/06 13:48:57;;;;;;;;;;;28.30;69.10;;;;;;4967433;28;20199;-71
2022/07/06 13:51:26;;;;;;;;;;;28.50;68.60;;;;;;4991886;28;20231;-69
2022/07/06 13:53:54;;;;;;;;;;;28.30;69.10;;;;;;4991830;28;20246;-69
2022/07/06 13:56:22;;;;;;;;;;;28.00;67.10;;;;;;4991530;28;20298;-69
2022/07/06 13:58:50;;;;;;;;;;;27.70;67.40;;;;;;4974649;28;20203;-69
2022/07/06 14:01:19;;;;;;;;;;;27.20;69.80;;;;;;4974206;28;20319;-68
2022/07/06 14:03:53;;;;;;;;;;;26.40;69.20;;;;;;4991841;28;20199;-69
2022/07/06 14:06:21;;;;;;;;;;;26.80;69.40;;;;;;4991392;28;20215;-69
2022/07/06 14:08:49;;;;;;;;;;;27.20;68.50;;;;;;4992077;28;20607;-69
2022/07/06 14:11:17;;;;;;;;;;;27.00;68.50;;;;;;4991305;28;20283;-69
2022/07/06 14:13:45;;;;;;;;;;;26.70;69.80;;;;;;4991546;28;20219;-69
2022/07/06 14:16:12;;;;;;;;;;;26.50;72.00;;;;;;4977809;28;20650;-69
2022/07/06 14:18:43;;;;;;;;;;;26.40;70.40;;;;;;4977702;28;20207;-68
2022/07/06 14:21:11;;;;;;;;;;;26.40;70.10;;;;;;4974696;28;20645;-69
2022/07/06 14:23:39;;;;;;;;;;;26.70;69.70;;;;;;4991428;28;20743;-69
2022/07/06 14:26:07;;;;;;;;;;;26.60;70.70;;;;;;4991673;28;20250;-69
2022/07/06 14:28:34;;;;;;;;;;;26.80;73.70;;;;;;4991842;28;20342;-71